createdAt,value
2022-11-29T00:01:41.333Z,13.07
2022-11-29T00:04:09.976Z,13.06
2022-11-29T00:06:40.017Z,13.06
2022-11-29T00:09:11.528Z,13.07
2022-11-29T00:11:58.940Z,13.06
2022-11-29T00:14:28.684Z,13.06
2022-11-29T00:16:59.243Z,13.06
2022-11-29T00:19:28.007Z,13.05
2022-11-29T00:21:57.956Z,13.05
2022-11-29T00:24:26.562Z,13.03
2022-11-29T00:26:58.893Z,13.07
2022-11-29T00:29:27.861Z,13.07
2022-11-29T00:31:56.169Z,13.04
2022-11-29T00:34:24.502Z,13.04
2022-11-29T00:36:52.921Z,13.05
2022-11-29T00:39:22.576Z,13.04
2022-11-29T00:41:50.958Z,13.05
2022-11-29T00:44:20.655Z,13.05
2022-11-29T00:46:49.474Z,13.05
2022-11-29T00:49:17.910Z,13.05
2022-11-29T00:51:46.274Z,13.03
2022-11-29T00:54:14.571Z,13.05
2022-11-29T00:56:44.461Z,13.03
2022-11-29T00:59:12.819Z,13.04
2022-11-29T01:01:41.222Z,13.02
2022-11-29T01:04:09.678Z,13.03
2022-11-29T01:06:38.100Z,13.02
2022-11-29T01:09:06.606Z,13.00
2022-11-29T01:11:35.095Z,13.02
2022-11-29T01:14:05.465Z,13.02
2022-11-29T01:16:33.961Z,13.02
2022-11-29T01:19:02.564Z,13.02
2022-11-29T01:21:31.076Z,13.00
2022-11-29T01:24:00.816Z,13.00
2022-11-29T01:26:30.697Z,13.01
2022-11-29T01:28:59.723Z,13.00
2022-11-29T01:31:31.362Z,13.01
2022-11-29T01:34:01.112Z,13.02
2022-11-29T01:36:29.656Z,13.01
2022-11-29T01:38:59.833Z,13.01
2022-11-29T01:41:30.287Z,13.00
2022-11-29T01:44:01.485Z,13.00
2022-11-29T01:46:32.491Z,13.01
2022-11-29T01:49:04.805Z,13.01
2022-11-29T01:51:35.606Z,13.00
2022-11-29T01:54:04.232Z,13.01
2022-11-29T01:56:34.716Z,12.99
2022-11-29T01:59:04.704Z,12.99
2022-11-29T02:01:35.781Z,12.99
2022-11-29T02:04:04.438Z,13.00
2022-11-29T02:06:33.175Z,13.00
2022-11-29T02:09:01.705Z,13.00
2022-11-29T02:11:45.988Z,13.00
2022-11-29T02:14:25.383Z,13.00
2022-11-29T02:16:59.560Z,12.99
2022-11-29T02:19:54.805Z,13.00
2022-11-29T02:22:25.878Z,13.00
2022-11-29T02:25:04.393Z,13.00
2022-11-29T02:27:48.362Z,13.00
2022-11-29T02:30:22.066Z,12.99
2022-11-29T02:33:28.338Z,12.98
2022-11-29T02:36:25.317Z,12.99
2022-11-29T02:39:26.495Z,12.98
2022-11-29T02:42:12.613Z,12.98
2022-11-29T02:45:00.309Z,12.98
2022-11-29T02:47:41.914Z,13.00
2022-11-29T02:50:19.526Z,12.99
2022-11-29T02:52:54.180Z,13.00
2022-11-29T02:55:29.655Z,13.00
2022-11-29T02:58:02.540Z,13.00
2022-11-29T03:00:31.267Z,12.99
2022-11-29T03:03:03.511Z,12.99
2022-11-29T03:05:41.261Z,12.99
2022-11-29T03:08:16.237Z,12.98
2022-11-29T03:10:53.630Z,12.99
2022-11-29T03:13:28.932Z,12.99
2022-11-29T03:16:00.590Z,12.99
2022-11-29T03:18:36.333Z,12.98
2022-11-29T03:21:11.099Z,12.98
2022-11-29T03:23:44.180Z,12.98
2022-11-29T03:26:16.119Z,12.99
2022-11-29T03:28:47.677Z,12.99
2022-11-29T03:31:20.147Z,12.99
2022-11-29T03:33:55.567Z,13.00
2022-11-29T03:36:30.889Z,12.98
2022-11-29T03:39:04.907Z,12.98
2022-11-29T03:41:37.886Z,12.97
2022-11-29T03:44:11.990Z,12.97
2022-11-29T03:46:45.319Z,12.98
2022-11-29T03:49:18.844Z,12.98
2022-11-29T03:51:56.619Z,12.98
2022-11-29T03:54:27.886Z,12.98
2022-11-29T03:56:56.793Z,12.99
2022-11-29T03:59:34.071Z,12.98
2022-11-29T04:02:16.015Z,12.99
2022-11-29T04:05:09.727Z,12.98
2022-11-29T04:07:49.155Z,12.98
2022-11-29T04:10:27.096Z,12.99
2022-11-29T04:13:17.309Z,12.97
2022-11-29T04:16:20.299Z,12.98
2022-11-29T04:19:16.868Z,12.98
2022-11-29T04:21:57.903Z,12.96
2022-11-29T04:24:54.422Z,12.98
2022-11-29T04:27:54.487Z,12.98
2022-11-29T04:30:24.014Z,12.98
2022-11-29T04:33:30.198Z,12.98
2022-11-29T04:36:37.958Z,12.96
2022-11-29T04:39:23.025Z,12.96
2022-11-29T04:42:07.675Z,12.96
2022-11-29T04:44:45.051Z,12.97
2022-11-29T04:47:37.910Z,12.96
2022-11-29T04:50:21.594Z,12.96
2022-11-29T04:53:06.174Z,12.97
2022-11-29T04:55:42.151Z,12.97
2022-11-29T04:58:18.028Z,12.96
2022-11-29T05:00:53.195Z,12.95
2022-11-29T05:03:26.570Z,12.97
2022-11-29T05:05:58.551Z,12.95
2022-11-29T05:08:33.210Z,12.95
2022-11-29T05:11:06.612Z,12.96
2022-11-29T05:13:43.762Z,12.95
2022-11-29T05:16:25.027Z,12.95
2022-11-29T05:19:12.571Z,12.95
2022-11-29T05:21:48.154Z,12.94
2022-11-29T05:24:28.237Z,12.93
2022-11-29T05:27:02.870Z,12.95
2022-11-29T05:29:37.174Z,12.94
2022-11-29T05:32:21.014Z,12.93
2022-11-29T05:35:00.017Z,12.94
2022-11-29T05:37:34.017Z,12.92
2022-11-29T05:40:37.424Z,12.93
2022-11-29T05:43:16.588Z,12.92
2022-11-29T05:45:50.843Z,12.91
2022-11-29T05:48:26.031Z,12.92
2022-11-29T05:51:04.058Z,12.92
2022-11-29T05:53:38.160Z,12.93
2022-11-29T05:56:10.346Z,12.92
2022-11-29T05:58:47.383Z,12.91
2022-11-29T06:01:21.886Z,12.91
2022-11-29T06:03:57.722Z,12.91
2022-11-29T06:06:32.318Z,12.89
2022-11-29T06:09:11.164Z,12.91
2022-11-29T06:11:43.434Z,12.90
2022-11-29T06:14:21.509Z,12.90
2022-11-29T06:17:02.799Z,12.90
2022-11-29T06:19:54.325Z,12.90
2022-11-29T06:22:35.894Z,12.89
2022-11-29T06:25:17.086Z,12.90
2022-11-29T06:28:04.307Z,12.90
2022-11-29T06:30:39.728Z,12.89
2022-11-29T06:33:13.978Z,12.90
2022-11-29T06:35:46.471Z,12.88
2022-11-29T06:38:18.243Z,12.87
2022-11-29T06:40:47.050Z,12.89
2022-11-29T06:43:16.451Z,12.88
2022-11-29T06:45:48.988Z,12.89
2022-11-29T06:48:22.502Z,12.88
2022-11-29T06:50:57.126Z,12.89
2022-11-29T06:53:33.759Z,12.88
2022-11-29T06:56:07.602Z,12.89
2022-11-29T06:58:45.166Z,12.89
2022-11-29T07:01:20.952Z,12.90
2022-11-29T07:04:04.977Z,12.89
2022-11-29T07:06:35.882Z,12.87
2022-11-29T07:09:11.347Z,12.89
2022-11-29T07:11:40.645Z,12.88
2022-11-29T07:14:09.915Z,12.89
2022-11-29T07:16:42.421Z,12.89
2022-11-29T07:19:17.446Z,12.89
2022-11-29T07:21:51.922Z,12.87
2022-11-29T07:24:31.289Z,12.88
2022-11-29T07:27:03.902Z,12.88
2022-11-29T07:29:36.297Z,12.88
2022-11-29T07:32:10.202Z,12.87
2022-11-29T07:34:49.630Z,12.87
2022-11-29T07:37:23.825Z,12.88
2022-11-29T07:39:57.900Z,12.88
2022-11-29T07:42:31.439Z,12.87
2022-11-29T07:45:08.003Z,12.87
2022-11-29T07:47:36.409Z,12.87
2022-11-29T07:50:07.304Z,12.89
2022-11-29T07:52:35.813Z,12.88
2022-11-29T07:55:05.040Z,12.89
2022-11-29T07:57:33.368Z,12.88
2022-11-29T08:00:01.748Z,12.89
2022-11-29T08:02:39.939Z,12.90
2022-11-29T08:05:10.676Z,12.89
2022-11-29T08:07:40.966Z,12.89
2022-11-29T08:10:12.312Z,12.90
2022-11-29T08:12:43.550Z,12.90
2022-11-29T08:15:12.363Z,12.89
2022-11-29T08:17:41.017Z,12.89
2022-11-29T08:20:11.722Z,12.90
2022-11-29T08:22:40.052Z,12.89
2022-11-29T08:25:10.019Z,12.89
2022-11-29T08:27:38.967Z,12.90
2022-11-29T08:30:09.093Z,12.90
2022-11-29T08:32:37.415Z,12.91
2022-11-29T08:35:06.190Z,12.90
2022-11-29T08:37:35.850Z,12.89
2022-11-29T08:40:04.590Z,12.91
2022-11-29T08:42:32.943Z,12.90
2022-11-29T08:45:01.251Z,12.90
2022-11-29T08:47:38.815Z,12.90
2022-11-29T08:50:10.918Z,12.91
2022-11-29T08:53:00.138Z,12.89
2022-11-29T08:55:32.600Z,12.90
2022-11-29T08:58:05.925Z,12.91
2022-11-29T09:00:34.777Z,12.92
2022-11-29T09:03:17.265Z,12.91
2022-11-29T09:05:45.525Z,12.93
2022-11-29T09:08:15.595Z,12.92
2022-11-29T09:10:44.350Z,12.93
2022-11-29T09:13:13.229Z,12.93
2022-11-29T09:15:43.317Z,12.93
2022-11-29T09:18:11.729Z,12.94
2022-11-29T09:20:43.389Z,12.93
2022-11-29T09:23:12.739Z,12.93
2022-11-29T09:25:42.386Z,12.95
2022-11-29T09:28:12.513Z,12.95
2022-11-29T09:30:40.799Z,12.95
2022-11-29T09:33:09.367Z,12.95
2022-11-29T09:35:37.855Z,12.95
2022-11-29T09:38:06.234Z,12.95
2022-11-29T09:40:38.898Z,12.97
2022-11-29T09:43:15.267Z,12.97
2022-11-29T09:45:46.803Z,12.95
2022-11-29T09:48:30.964Z,12.96
2022-11-29T09:51:07.169Z,12.96
2022-11-29T09:53:44.535Z,12.98
2022-11-29T09:56:19.111Z,12.97
2022-11-29T09:58:52.232Z,12.97
2022-11-29T10:01:24.242Z,12.97
2022-11-29T10:03:54.419Z,13.10
2022-11-29T10:06:26.607Z,13.05
2022-11-29T10:08:58.613Z,13.01
2022-11-29T10:11:31.216Z,13.00
2022-11-29T10:14:09.114Z,12.99
2022-11-29T10:16:43.751Z,13.00
2022-11-29T10:19:19.288Z,12.98
2022-11-29T10:21:57.152Z,12.99
2022-11-29T10:24:26.378Z,13.00
2022-11-29T10:26:55.134Z,13.00
2022-11-29T10:29:24.959Z,13.01
2022-11-29T10:31:56.659Z,13.01
2022-11-29T10:34:26.658Z,13.00
2022-11-29T10:36:58.610Z,13.01
2022-11-29T10:39:31.063Z,13.01
2022-11-29T10:42:02.767Z,13.00
2022-11-29T10:44:34.481Z,13.00
2022-11-29T10:47:09.288Z,13.01
2022-11-29T10:49:40.152Z,13.01
2022-11-29T10:52:13.195Z,13.02
2022-11-29T10:54:43.841Z,13.02
2022-11-29T10:57:15.404Z,13.03
2022-11-29T10:59:59.987Z,13.04
2022-11-29T11:02:28.940Z,13.04
2022-11-29T11:04:57.667Z,13.03
2022-11-29T11:07:28.948Z,13.02
2022-11-29T11:09:58.270Z,13.03
2022-11-29T11:12:29.550Z,13.04
2022-11-29T11:15:27.944Z,13.04
2022-11-29T11:17:58.530Z,13.03
2022-11-29T11:20:29.032Z,13.04
2022-11-29T11:22:59.027Z,13.05
2022-11-29T11:25:30.064Z,13.05
2022-11-29T11:27:59.185Z,13.04
2022-11-29T11:30:29.874Z,13.05
2022-11-29T11:33:08.412Z,13.06
2022-11-29T11:35:37.290Z,13.06
2022-11-29T11:38:05.716Z,13.05
2022-11-29T11:40:34.637Z,13.07
2022-11-29T11:43:03.890Z,13.08
2022-11-29T11:45:35.533Z,13.08
2022-11-29T11:48:06.742Z,13.08
2022-11-29T11:50:38.727Z,13.08
2022-11-29T11:53:08.689Z,13.09
2022-11-29T11:55:38.889Z,13.09
2022-11-29T11:58:16.838Z,13.08
2022-11-29T12:01:06.033Z,13.08
2022-11-29T12:03:45.427Z,13.09
2022-11-29T12:06:24.722Z,13.10
2022-11-29T12:08:56.147Z,13.09
2022-11-29T12:11:25.275Z,13.08
2022-11-29T12:13:56.543Z,13.09
2022-11-29T12:16:29.393Z,13.12
2022-11-29T12:19:01.007Z,13.11
2022-11-29T12:21:34.413Z,13.12
2022-11-29T12:24:07.008Z,13.12
2022-11-29T12:29:30.104Z,13.13
2022-11-29T12:32:08.180Z,13.12
2022-11-29T12:34:54.204Z,13.13
2022-11-29T12:37:27.158Z,13.13
2022-11-29T12:39:58.351Z,13.15
2022-11-29T12:42:38.132Z,13.14
2022-11-29T12:45:20.626Z,13.14
2022-11-29T12:47:56.786Z,13.16
2022-11-29T12:50:32.525Z,13.17
2022-11-29T12:53:09.653Z,13.17
2022-11-29T12:55:45.513Z,13.18
2022-11-29T12:58:18.855Z,13.17
2022-11-29T13:00:52.377Z,13.18
2022-11-29T13:03:27.702Z,13.18
2022-11-29T13:06:03.613Z,13.19
2022-11-29T13:08:59.646Z,13.19
2022-11-29T13:11:30.355Z,13.20
2022-11-29T13:14:34.592Z,13.19
2022-11-29T13:16:57.766Z,13.18
2022-11-29T13:19:33.436Z,13.19
2022-11-29T13:22:08.078Z,13.20
2022-11-29T13:24:42.954Z,13.19
2022-11-29T13:27:17.249Z,13.19
2022-11-29T13:29:46.265Z,13.20
2022-11-29T13:32:27.737Z,13.19
2022-11-29T13:35:01.762Z,13.19
2022-11-29T13:37:35.844Z,13.18
2022-11-29T13:40:15.281Z,13.20
2022-11-29T13:42:47.433Z,13.20
2022-11-29T13:45:19.529Z,13.20
2022-11-29T13:47:52.129Z,13.19
2022-11-29T13:50:42.130Z,13.19
2022-11-29T13:53:15.703Z,13.19
2022-11-29T13:55:48.899Z,13.19
2022-11-29T13:58:40.972Z,13.20
2022-11-29T14:01:11.142Z,13.20
2022-11-29T14:03:40.732Z,13.21
2022-11-29T14:06:21.056Z,13.20
2022-11-29T14:09:19.602Z,13.20
2022-11-29T14:11:50.393Z,13.20
2022-11-29T14:14:23.969Z,13.20
2022-11-29T14:16:54.713Z,13.21
2022-11-29T14:19:32.851Z,13.21
2022-11-29T14:22:33.316Z,13.21
2022-11-29T14:28:30.472Z,13.19
2022-11-29T14:31:01.590Z,13.20
2022-11-29T14:33:42.830Z,13.20
2022-11-29T14:36:33.161Z,13.20
2022-11-29T14:39:13.800Z,13.20
2022-11-29T14:41:53.486Z,13.21
2022-11-29T14:44:24.129Z,13.21
2022-11-29T14:47:02.152Z,13.21
2022-11-29T14:49:31.576Z,13.20
2022-11-29T14:52:08.554Z,13.19
2022-11-29T14:54:54.691Z,13.20
2022-11-29T14:57:54.688Z,13.19
2022-11-29T15:00:24.461Z,13.19
2022-11-29T15:02:57.174Z,13.20
2022-11-29T15:05:32.011Z,13.19
2022-11-29T15:08:08.582Z,13.19
2022-11-29T15:10:40.932Z,13.19
2022-11-29T15:13:11.774Z,13.18
2022-11-29T15:15:53.033Z,13.18
2022-11-29T15:18:31.739Z,13.19
2022-11-29T15:21:19.692Z,13.19
2022-11-29T15:23:48.132Z,13.19
2022-11-29T15:26:20.305Z,13.19
2022-11-29T15:28:48.717Z,13.19
2022-11-29T15:31:20.016Z,13.18
2022-11-29T15:33:50.029Z,13.19
2022-11-29T15:36:20.452Z,13.19
2022-11-29T15:38:50.313Z,13.18
2022-11-29T15:41:28.369Z,13.17
2022-11-29T15:43:58.604Z,13.18
2022-11-29T15:46:28.171Z,13.19
2022-11-29T15:48:56.584Z,13.18
2022-11-29T15:51:28.637Z,13.18
2022-11-29T15:54:12.827Z,13.18
2022-11-29T15:56:46.745Z,13.18
2022-11-29T15:59:19.782Z,13.16
2022-11-29T16:01:49.574Z,13.17
2022-11-29T16:04:20.025Z,13.18
2022-11-29T16:06:49.338Z,13.18
2022-11-29T16:09:20.026Z,13.18
2022-11-29T16:11:49.871Z,13.18
2022-11-29T16:14:22.083Z,13.19
2022-11-29T16:16:53.348Z,13.16
2022-11-29T16:19:32.445Z,13.18
2022-11-29T16:22:15.865Z,13.17
2022-11-29T16:24:52.589Z,13.19
2022-11-29T16:27:23.575Z,13.19
2022-11-29T16:29:54.931Z,13.19
2022-11-29T16:32:27.387Z,13.19
2022-11-29T16:34:56.860Z,13.19
2022-11-29T16:37:26.835Z,13.19
2022-11-29T16:39:59.125Z,13.19
2022-11-29T16:42:29.983Z,13.19
2022-11-29T16:45:27.620Z,13.17
2022-11-29T16:47:58.723Z,13.18
2022-11-29T16:50:29.097Z,13.18
2022-11-29T16:52:59.502Z,13.19
2022-11-29T16:55:27.949Z,13.16
2022-11-29T16:57:57.676Z,13.18
2022-11-29T17:00:32.166Z,13.17
2022-11-29T17:03:00.864Z,13.18
2022-11-29T17:05:29.384Z,13.17
2022-11-29T17:07:57.761Z,13.17
2022-11-29T17:10:26.584Z,13.18
2022-11-29T17:12:55.059Z,13.18
2022-11-29T17:15:24.680Z,13.17
2022-11-29T17:17:53.090Z,13.18
2022-11-29T17:20:21.386Z,13.18
2022-11-29T17:22:49.671Z,13.18
2022-11-29T17:25:18.005Z,13.18
2022-11-29T17:27:46.300Z,13.19
2022-11-29T17:30:15.273Z,13.15
2022-11-29T17:32:44.952Z,13.18
2022-11-29T17:35:13.223Z,13.18
2022-11-29T17:37:41.477Z,13.19
2022-11-29T17:40:10.318Z,13.19
2022-11-29T17:42:38.690Z,13.19
2022-11-29T17:45:07.965Z,13.17
2022-11-29T17:47:36.340Z,13.17
2022-11-29T17:50:07.360Z,13.17
2022-11-29T17:52:35.742Z,13.17
2022-11-29T17:55:04.137Z,13.17
2022-11-29T17:57:33.235Z,13.15
2022-11-29T18:00:04.123Z,13.17
2022-11-29T18:02:33.732Z,13.16
2022-11-29T18:05:02.002Z,13.17
2022-11-29T18:07:31.777Z,13.18
2022-11-29T18:10:00.088Z,13.18
2022-11-29T18:12:28.702Z,13.18
2022-11-29T18:14:57.172Z,13.18
2022-11-29T18:17:25.586Z,13.18
2022-11-29T18:19:53.878Z,13.18
2022-11-29T18:22:22.185Z,13.19
2022-11-29T18:24:54.937Z,13.19
2022-11-29T18:27:33.682Z,13.18
2022-11-29T18:30:03.226Z,13.18
2022-11-29T18:32:33.084Z,13.18
2022-11-29T18:35:01.655Z,13.18
2022-11-29T18:38:06.420Z,13.19
2022-11-29T18:40:20.115Z,13.19
2022-11-29T18:42:49.144Z,13.18
2022-11-29T18:45:17.658Z,13.17
2022-11-29T18:47:46.173Z,13.17
2022-11-29T18:50:14.814Z,13.17
2022-11-29T18:52:43.249Z,13.17
2022-11-29T18:55:11.710Z,13.17
2022-11-29T18:57:41.433Z,13.18
2022-11-29T19:00:11.947Z,13.18
2022-11-29T19:02:40.628Z,13.18
2022-11-29T19:05:09.544Z,13.18
2022-11-29T19:07:38.044Z,13.17
2022-11-29T19:10:08.060Z,13.18
2022-11-29T19:12:36.678Z,13.19
2022-11-29T19:15:07.519Z,13.19
2022-11-29T19:17:41.656Z,13.20
2022-11-29T19:20:15.519Z,13.20
2022-11-29T19:22:44.214Z,13.20
2022-11-29T19:25:13.009Z,13.20
2022-11-29T19:27:43.589Z,13.19
2022-11-29T19:30:16.578Z,13.19
2022-11-29T19:32:45.095Z,13.20
2022-11-29T19:35:13.514Z,13.20
2022-11-29T19:37:42.085Z,13.21
2022-11-29T19:40:12.703Z,13.21
2022-11-29T19:42:41.113Z,13.22
2022-11-29T19:45:18.575Z,13.22
2022-11-29T19:47:48.469Z,13.21
2022-11-29T19:50:17.033Z,13.22
2022-11-29T19:52:45.467Z,13.22
2022-11-29T19:55:14.938Z,13.22
2022-11-29T19:57:44.673Z,13.21
2022-11-29T20:00:14.408Z,13.23
2022-11-29T20:02:43.089Z,13.21
2022-11-29T20:05:14.127Z,13.23
2022-11-29T20:07:42.635Z,13.22
2022-11-29T20:10:13.210Z,13.23
2022-11-29T20:12:41.753Z,13.23
2022-11-29T20:15:10.567Z,13.23
2022-11-29T20:17:39.032Z,13.23
2022-11-29T20:20:09.127Z,13.24
2022-11-29T20:22:39.105Z,13.23
2022-11-29T20:25:08.123Z,13.22
2022-11-29T20:27:36.543Z,13.23
2022-11-29T20:30:05.622Z,13.23
2022-11-29T20:32:35.566Z,13.23
2022-11-29T20:35:04.944Z,13.24
2022-11-29T20:37:49.360Z,13.23
2022-11-29T20:40:20.977Z,13.24
2022-11-29T20:43:04.704Z,13.23
2022-11-29T20:45:33.834Z,13.23
2022-11-29T20:48:05.562Z,13.23
2022-11-29T20:50:34.805Z,13.23
2022-11-29T20:53:13.722Z,13.23
2022-11-29T20:55:48.002Z,13.24
2022-11-29T20:58:18.240Z,13.24
2022-11-29T21:00:46.886Z,13.24
2022-11-29T21:03:15.465Z,13.23
2022-11-29T21:05:44.800Z,13.23
2022-11-29T21:08:14.830Z,13.23
2022-11-29T21:10:43.401Z,13.23
2022-11-29T21:13:12.923Z,13.24
2022-11-29T21:15:42.005Z,13.23
2022-11-29T21:18:18.527Z,13.24
2022-11-29T21:20:51.401Z,13.24
2022-11-29T21:23:25.641Z,13.25
2022-11-29T21:25:58.034Z,13.25
2022-11-29T21:28:31.415Z,13.22
2022-11-29T21:31:00.271Z,13.23
2022-11-29T21:33:29.128Z,13.24
2022-11-29T21:35:58.859Z,13.25
2022-11-29T21:38:30.184Z,13.24
2022-11-29T21:40:58.436Z,13.22
2022-11-29T21:43:57.934Z,13.24
2022-11-29T21:46:14.986Z,13.25
2022-11-29T21:48:44.350Z,13.25
2022-11-29T21:51:14.470Z,13.23
2022-11-29T21:53:44.111Z,13.23
2022-11-29T21:56:12.698Z,13.23
2022-11-29T21:58:41.281Z,13.22
2022-11-29T22:01:11.600Z,13.24
2022-11-29T22:03:40.337Z,13.24
2022-11-29T22:06:10.303Z,13.24
2022-11-29T22:08:39.858Z,13.23
2022-11-29T22:11:11.311Z,13.23
2022-11-29T22:14:01.836Z,13.23
2022-11-29T22:16:31.140Z,13.24
2022-11-29T22:18:59.537Z,13.24
2022-11-29T22:21:27.912Z,13.24
2022-11-29T22:23:56.988Z,13.24
2022-11-29T22:26:28.452Z,13.23
2022-11-29T22:28:56.749Z,13.23
2022-11-29T22:31:25.130Z,13.24
2022-11-29T22:33:54.445Z,13.23
2022-11-29T22:36:22.981Z,13.23
2022-11-29T22:38:51.341Z,13.23
2022-11-29T22:41:19.667Z,13.24
2022-11-29T22:43:49.315Z,13.24
2022-11-29T22:46:19.676Z,13.22
2022-11-29T22:48:50.765Z,13.24
2022-11-29T22:51:20.912Z,13.23
2022-11-29T22:53:51.887Z,13.23
2022-11-29T22:56:21.549Z,13.22
2022-11-29T22:58:51.469Z,13.21
2022-11-29T23:01:21.459Z,13.22
2022-11-29T23:03:53.678Z,13.23
2022-11-29T23:06:24.524Z,13.24
2022-11-29T23:08:53.881Z,13.22
2022-11-29T23:11:23.741Z,13.25
2022-11-29T23:13:53.581Z,13.23
2022-11-29T23:16:24.473Z,13.24
2022-11-29T23:18:53.227Z,13.23
2022-11-29T23:21:23.318Z,13.23
2022-11-29T23:23:56.314Z,13.24
2022-11-29T23:26:26.381Z,13.24
2022-11-29T23:28:56.083Z,13.23
2022-11-29T23:31:25.193Z,13.22
2022-11-29T23:33:53.670Z,13.24
2022-11-29T23:36:22.043Z,13.23
2022-11-29T23:38:50.467Z,13.24
2022-11-29T23:41:18.789Z,13.24
2022-11-29T23:43:47.085Z,13.24
2022-11-29T23:46:19.394Z,13.23
2022-11-29T23:48:48.155Z,13.24
2022-11-29T23:51:17.061Z,13.22
2022-11-29T23:53:46.634Z,13.22
2022-11-29T23:56:16.120Z,13.23
2022-11-29T23:58:44.855Z,13.22
